METAR Data
IDs: Format: Raw Decoded Include TAF

Data at: 2048 UTC 02 Aug 2021

EHEH 022044Z AUTO VRB01KT 9999 OVC290 12/10 Q1015 BLU